Helene — V2BK5 — position and weather

sailwx.info

Track history (hours):
 
Tides and Currents Weather Stations Pressure Air Temp Water Temp Dewpoint Dewpoint Depression Visibility Wind Speed Wind Dir Waves Ship Positions

Helene

Last reported at 2015-Mar-23 14:03 UTC. Time now 2015-Mar-31 15:31 UTC.
Position N 36°47' E 003°08'.
Warning: this ship's position is 8 days out of date.

Length 140 m; draft 8.5 m.

Type: Cargo ship. MMSI: 304846000.

Date/timePositionNaut miles runAvg speedWind from/ knotsBaromVisibWave heightAir tempDewpointWater temp
2015-Mar-23 14:03N 36°47' E 003°08'0 0.0
2015-Mar-23 13:33N 36°47' E 003°08'0 0.0
2015-Mar-23 12:24N 36°47' E 003°08'0 0.0
2015-Mar-23 11:33N 36°47' E 003°08'0 0.0
2015-Mar-23 10:33N 36°47' E 003°08'  
2015-Mar-14 16:27N 42°02' E 005°42'2512.3
2015-Mar-14 14:24N 42°26' E 005°28'1212.6
2015-Mar-14 13:26N 42°37' E 005°22'1211.9
2015-Mar-14 12:27N 42°48' E 005°16'1312.2
2015-Mar-14 11:24N 42°59' E 005°08'1012.5
2015-Mar-14 10:33N 43°09' E 005°03'1212.4
2015-Mar-14 09:34N 43°21' E 004°58'7 6.7
2015-Mar-14 08:32N 43°25' E 004°50'0 0.0
2015-Mar-14 07:32N 43°25' E 004°50'0 0.0
2015-Mar-14 06:32N 43°25' E 004°50'0 0.0
2015-Mar-14 05:32N 43°25' E 004°50'0 0.0
2015-Mar-14 04:29N 43°25' E 004°50'0 0.0
2015-Mar-14 03:32N 43°25' E 004°50'0 0.0
2015-Mar-14 02:32N 43°25' E 004°50'0 0.0
2015-Mar-14 01:32N 43°25' E 004°50'0 0.0
2015-Mar-14 00:32N 43°25' E 004°50'0 0.0
2015-Mar-13 23:32N 43°25' E 004°50'0 0.0
2015-Mar-13 22:32N 43°25' E 004°50'0 0.0
2015-Mar-13 21:32N 43°25' E 004°50'0 0.0
2015-Mar-13 20:32N 43°25' E 004°50'2 2.1
2015-Mar-13 19:33N 43°24' E 004°53'9 8.8
2015-Mar-13 18:33N 43°17' E 005°00'1111.1
2015-Mar-13 17:33N 43°08' E 005°08'7 6.4
2015-Mar-13 16:26N 43°00' E 005°08'4 5.1
2015-Mar-13 15:33N 43°01' E 005°14'  
Track history (hours):
 
Tides and Currents Weather Stations Pressure Air Temp Water Temp Dewpoint Dewpoint Depression Visibility Wind Speed Wind Dir Waves Ship Positions

Helene

Last reported at 2015-Mar-23 14:03 UTC. Time now 2015-Mar-31 15:31 UTC.
Position N 36°47' E 003°08'.
Warning: this ship's position is 8 days out of date.

Length 140 m; draft 8.5 m.

Type: Cargo ship. MMSI: 304846000.

Date/timePositionNaut miles runAvg speedWind from/ knotsBaromVisibWave heightAir tempDewpointWater temp
2015-Mar-23 14:03N 36°47' E 003°08'0 0.0
2015-Mar-23 13:33N 36°47' E 003°08'0 0.0
2015-Mar-23 12:24N 36°47' E 003°08'0 0.0
2015-Mar-23 11:33N 36°47' E 003°08'0 0.0
2015-Mar-23 10:33N 36°47' E 003°08'  
2015-Mar-14 16:27N 42°02' E 005°42'2512.3
2015-Mar-14 14:24N 42°26' E 005°28'1212.6
2015-Mar-14 13:26N 42°37' E 005°22'1211.9
2015-Mar-14 12:27N 42°48' E 005°16'1312.2
2015-Mar-14 11:24N 42°59' E 005°08'1012.5
2015-Mar-14 10:33N 43°09' E 005°03'1212.4
2015-Mar-14 09:34N 43°21' E 004°58'7 6.7
2015-Mar-14 08:32N 43°25' E 004°50'0 0.0
2015-Mar-14 07:32N 43°25' E 004°50'0 0.0
2015-Mar-14 06:32N 43°25' E 004°50'0 0.0
2015-Mar-14 05:32N 43°25' E 004°50'0 0.0
2015-Mar-14 04:29N 43°25' E 004°50'0 0.0
2015-Mar-14 03:32N 43°25' E 004°50'0 0.0
2015-Mar-14 02:32N 43°25' E 004°50'0 0.0
2015-Mar-14 01:32N 43°25' E 004°50'0 0.0
2015-Mar-14 00:32N 43°25' E 004°50'0 0.0
2015-Mar-13 23:32N 43°25' E 004°50'0 0.0
2015-Mar-13 22:32N 43°25' E 004°50'0 0.0
2015-Mar-13 21:32N 43°25' E 004°50'0 0.0
2015-Mar-13 20:32N 43°25' E 004°50'2 2.1
2015-Mar-13 19:33N 43°24' E 004°53'9 8.8
2015-Mar-13 18:33N 43°17' E 005°00'1111.1
2015-Mar-13 17:33N 43°08' E 005°08'7 6.4
2015-Mar-13 16:26N 43°00' E 005°08'4 5.1
2015-Mar-13 15:33N 43°01' E 005°14'  

Dump ship's entire track history